Time;durP1;ratioP1;P1;durP2;ratioP2;P2;SDS_P1;SDS_P2;PMS_P1;PMS_P2;Temp;Humidity;BMP_temperature;BMP_pressure;BME280_temperature;BME280_humidity;BME280_pressure;Samples;Min_cycle;Max_cycle;Signal;HPM_P1;HPM_P2
2021/09/04 00:00:15;;;;;;;;;;;;;;;14.85;60.00;99915.44;4394821;32;20024;-96
2021/09/04 00:02:40;;;;;;;;;;;;;;;14.72;60.00;99920.41;4394713;32;20021;-95
2021/09/04 00:05:06;;;;;;;;;;;;;;;14.71;60.00;99923.94;4396801;32;19999;-95
2021/09/04 00:07:32;;;;;;;;;;;;;;;14.53;59.98;99923.00;4394925;32;20000;-95
2021/09/04 00:09:57;;;;;;;;;;;;;;;14.72;60.00;99918.63;4396264;32;20366;-95
2021/09/04 00:12:24;;;;;;;;;;;;;;;14.72;59.99;99923.88;4394286;32;20057;-96
2021/09/04 00:14:49;;;;;;;;;;;;;;;14.61;59.99;99914.78;4394771;32;20003;-96
2021/09/04 00:17:16;;;;;;;;;;;;;;;14.55;59.98;99922.94;4393775;32;20053;-96
2021/09/04 00:19:41;;;;;;;;;;;;;;;14.60;59.99;99919.19;4392229;32;20336;-95
2021/09/04 00:22:06;;;;;;;;;;;;;;;14.68;59.99;99919.69;4397947;32;20033;-94
2021/09/04 00:24:31;;;;;;;;;;;;;;;14.55;59.98;99910.69;4396499;32;20005;-94
2021/09/04 00:26:57;;;;;;;;;;;;;;;14.45;59.98;99919.06;4393173;32;19979;-95
2021/09/04 00:29:24;;;;;;;;;;;;;;;14.55;59.98;99913.31;4393176;32;20018;-95
2021/09/04 00:37:38;;;;;;;;;;;;;;;14.71;59.99;99906.47;4598735;27;19997;-94
2021/09/04 00:40:22;;;;;;;;;;;;;;;14.61;59.98;99914.78;4336736;33;19999;-93
2021/09/04 00:42:48;;;;;;;;;;;;;;;14.68;59.99;99917.09;4349328;33;20359;-93
2021/09/04 00:45:13;;;;;;;;;;;;;;;14.70;59.98;99912.63;4336727;33;20000;-94
2021/09/04 00:47:57;;;;;;;;;;;;;;;14.57;59.99;99911.47;4336713;33;19976;-93
2021/09/04 00:50:23;;;;;;;;;;;;;;;14.54;59.98;99909.00;4336877;33;20124;-93
2021/09/04 00:52:49;;;;;;;;;;;;;;;14.56;59.99;99903.69;4348296;33;20034;-93
2021/09/04 00:55:14;;;;;;;;;;;;;;;14.54;59.99;99895.06;4337725;33;20058;-94
2021/09/04 00:57:39;;;;;;;;;;;;;;;14.49;59.99;99897.03;4338375;33;19987;-93
2021/09/04 01:00:05;;;;;;;;;;;;;;;14.30;59.97;99903.06;4338102;33;27270;-93
2021/09/04 01:02:30;;;;;;;;;;;;;;;14.34;59.98;99899.38;4338324;33;19987;-93
2021/09/04 01:04:55;;;;;;;;;;;;;;;14.33;59.98;99902.91;4337664;33;26920;-94
2021/09/04 01:07:20;;;;;;;;;;;;;;;14.34;59.98;99904.63;4337693;33;20014;-93
2021/09/04 01:09:46;;;;;;;;;;;;;;;14.35;59.97;99902.84;4337805;33;26608;-94
2021/09/04 01:12:13;;;;;;;;;;;;;;;14.31;59.96;99901.28;4338290;33;19992;-95
2021/09/04 01:14:39;;;;;;;;;;;;;;;14.45;59.98;99898.09;4338828;33;20661;-95
2021/09/04 01:17:05;;;;;;;;;;;;;;;14.30;59.96;99900.44;4338590;33;19987;-95
2021/09/04 01:19:30;;;;;;;;;;;;;;;14.23;59.96;99892.94;4338359;33;20662;-94
2021/09/04 01:21:56;;;;;;;;;;;;;;;14.18;59.96;99893.13;4338110;33;20011;-93
2021/09/04 01:24:21;;;;;;;;;;;;;;;14.41;59.98;99890.31;4338935;33;19996;-93
2021/09/04 01:26:46;;;;;;;;;;;;;;;14.40;59.97;99893.00;4339655;33;20020;-96
2021/09/04 01:29:12;;;;;;;;;;;;;;;14.30;59.96;99889.97;4327411;33;20026;-96
2021/09/04 01:31:37;;;;;;;;;;;;;;;14.34;59.97;99888.91;4349676;33;20003;-96
2021/09/04 01:34:03;;;;;;;;;;;;;;;13.93;59.94;99890.72;4324497;33;20010;-96
2021/09/04 01:36:29;;;;;;;;;;;;;;;13.87;59.94;99895.41;4328578;32;19997;-94
2021/09/04 01:38:54;;;;;;;;;;;;;;;13.98;59.95;99890.56;4352762;32;19987;-95
2021/09/04 01:41:22;;;;;;;;;;;;;;;14.02;59.95;99889.50;4340314;32;19995;-96
2021/09/04 01:43:47;;;;;;;;;;;;;;;14.22;59.96;99886.84;4340259;32;20656;-95
2021/09/04 01:46:12;;;;;;;;;;;;;;;14.15;59.96;99882.78;4339965;32;20013;-95
2021/09/04 01:48:37;;;;;;;;;;;;;;;14.20;59.96;99880.84;4339991;32;19987;-94
2021/09/04 01:51:03;;;;;;;;;;;;;;;14.09;59.95;99880.47;4340002;32;19991;-96
2021/09/04 01:53:28;;;;;;;;;;;;;;;14.07;59.95;99875.28;4339129;32;20336;-93
2021/09/04 01:55:53;;;;;;;;;;;;;;;14.08;59.95;99876.12;4339339;32;20029;-96
2021/09/04 01:58:18;;;;;;;;;;;;;;;14.13;59.96;99874.16;4340442;32;20001;-94
2021/09/04 02:00:43;;;;;;;;;;;;;;;14.22;59.97;99865.91;4365727;32;20006;-95
2021/09/04 02:03:09;;;;;;;;;;;;;;;14.38;59.97;99861.66;4341292;32;20038;-94
2021/09/04 02:05:34;;;;;;;;;;;;;;;14.20;59.96;99852.03;4340828;32;20019;-94
2021/09/04 02:07:59;;;;;;;;;;;;;;;14.27;59.97;99857.84;4365278;32;20003;-93
2021/09/04 02:10:24;;;;;;;;;;;;;;;14.21;59.96;99863.37;4341053;32;19999;-94
2021/09/04 02:12:50;;;;;;;;;;;;;;;14.20;59.96;99861.66;4342632;32;19999;-96
2021/09/04 02:15:17;;;;;;;;;;;;;;;14.08;59.96;99865.66;4346626;32;19999;-94
2021/09/04 02:17:42;;;;;;;;;;;;;;;14.00;59.95;99865.16;4345689;32;19959;-94
2021/09/04 02:20:08;;;;;;;;;;;;;;;13.90;59.95;99864.69;4341802;32;20002;-94
2021/09/04 02:22:33;;;;;;;;;;;;;;;13.75;59.94;99868.84;4353512;32;20110;-94
2021/09/04 02:24:58;;;;;;;;;;;;;;;13.81;59.94;99860.72;4345330;32;19983;-96
2021/09/04 02:27:25;;;;;;;;;;;;;;;13.90;59.95;99858.63;4346134;32;19952;-96
2021/09/04 02:29:52;;;;;;;;;;;;;;;13.91;59.95;99852.47;4358438;32;19997;-96
2021/09/04 02:32:18;;;;;;;;;;;;;;;13.44;59.92;99858.81;4369534;32;20313;-96
2021/09/04 02:34:43;;;;;;;;;;;;;;;13.68;59.93;99856.94;4370820;32;19983;-96
2021/09/04 02:37:09;;;;;;;;;;;;;;;13.72;59.93;99860.25;4358032;32;19963;-96
2021/09/04 02:39:34;;;;;;;;;;;;;;;13.52;59.93;99862.00;4340260;32;20003;-95
2021/09/04 02:41:59;;;;;;;;;;;;;;;13.72;59.95;99857.66;4340485;32;20010;-95
2021/09/04 02:44:25;;;;;;;;;;;;;;;13.59;59.93;99857.34;4340237;32;20014;-96
2021/09/04 02:46:50;;;;;;;;;;;;;;;13.75;59.94;99847.94;4340236;32;19999;-95
2021/09/04 02:49:15;;;;;;;;;;;;;;;13.58;59.93;99854.78;4340612;32;19997;-95
2021/09/04 02:51:41;;;;;;;;;;;;;;;13.73;59.94;99852.38;4340469;32;20025;-94
2021/09/04 02:54:06;;;;;;;;;;;;;;;13.85;59.95;99847.50;4340757;32;19977;-95
2021/09/04 02:56:32;;;;;;;;;;;;;;;13.85;59.94;99852.75;4342446;32;19993;-95
2021/09/04 02:58:57;;;;;;;;;;;;;;;13.82;59.94;99851.13;4343016;32;20310;-95
2021/09/04 03:01:22;;;;;;;;;;;;;;;14.01;59.95;99843.31;4341422;32;20009;-94
2021/09/04 03:03:47;;;;;;;;;;;;;;;13.97;59.95;99842.59;4339542;32;19984;-92
2021/09/04 03:06:13;;;;;;;;;;;;;;;13.96;59.95;99842.63;4339718;32;19979;-91
2021/09/04 03:08:38;;;;;;;;;;;;;;;13.99;59.95;99838.16;4339899;32;20561;-92
2021/09/04 03:11:03;;;;;;;;;;;;;;;14.16;59.96;99834.75;4339473;32;20042;-93
2021/09/04 03:13:29;;;;;;;;;;;;;;;14.03;59.96;99836.25;4351911;32;19987;-93
2021/09/04 03:15:54;;;;;;;;;;;;;;;14.04;59.96;99832.69;4339005;32;24191;-92
2021/09/04 03:18:19;;;;;;;;;;;;;;;14.06;59.95;99833.47;4339231;32;20356;-94
2021/09/04 03:20:44;;;;;;;;;;;;;;;14.14;59.96;99826.13;4338727;32;27159;-93
2021/09/04 03:23:09;;;;;;;;;;;;;;;14.01;59.95;99827.59;4338436;32;19983;-93
2021/09/04 03:25:35;;;;;;;;;;;;;;;13.95;59.94;99820.00;4339413;32;19983;-93
2021/09/04 03:28:00;;;;;;;;;;;;;;;14.07;59.95;99820.31;4339494;32;20005;-92
2021/09/04 03:30:25;;;;;;;;;;;;;;;13.91;59.95;99818.44;4339541;32;19991;-91
2021/09/04 03:33:01;;;;;;;;;;;;;;;13.88;59.95;99823.81;4339187;32;20252;-91
2021/09/04 03:35:59;;;;;;;;;;;;;;;13.92;59.94;99825.37;4359147;32;19959;-96
2021/09/04 03:57:43;;;;;;;;;;;;;;;13.46;59.93;99838.69;4391371;32;19961;-95
2021/09/04 04:00:08;;;;;;;;;;;;;;;13.48;59.92;99833.37;4398024;32;19991;-93
2021/09/04 04:02:34;;;;;;;;;;;;;;;13.30;59.91;99836.81;4392354;32;19979;-93
2021/09/04 04:04:59;;;;;;;;;;;;;;;13.18;59.90;99832.91;4392362;32;19994;-94
2021/09/04 04:07:24;;;;;;;;;;;;;;;13.13;59.91;99829.62;4395089;32;19974;-95
2021/09/04 04:09:49;;;;;;;;;;;;;;;13.27;59.92;99840.41;4391814;32;19987;-95
2021/09/04 04:12:15;;;;;;;;;;;;;;;13.35;59.92;99834.84;4391994;32;20305;-95
2021/09/04 04:14:40;;;;;;;;;;;;;;;13.06;59.90;99843.84;4391555;32;19975;-91
2021/09/04 04:17:05;;;;;;;;;;;;;;;13.27;59.92;99842.16;4392628;32;19985;-95
2021/09/04 04:19:31;;;;;;;;;;;;;;;13.24;59.91;99837.88;4392118;32;20062;-95
2021/09/04 04:21:56;;;;;;;;;;;;;;;13.04;59.91;99848.28;4392233;32;20018;-96
2021/09/04 04:24:21;;;;;;;;;;;;;;;13.02;59.89;99848.34;4391894;32;20006;-95
2021/09/04 04:26:47;;;;;;;;;;;;;;;12.98;59.90;99846.75;4391479;32;19979;-94
2021/09/04 04:29:12;;;;;;;;;;;;;;;13.11;59.90;99849.75;4391209;32;20051;-95
2021/09/04 04:31:39;;;;;;;;;;;;;;;13.13;59.91;99848.75;4379960;32;19986;-93
2021/09/04 04:34:05;;;;;;;;;;;;;;;13.31;59.91;99847.19;4379283;32;19993;-96
2021/09/04 04:36:30;;;;;;;;;;;;;;;13.20;59.91;99842.41;4379198;32;19983;-95
2021/09/04 04:38:55;;;;;;;;;;;;;;;13.30;59.92;99842.03;4378231;32;20013;-91
2021/09/04 04:41:20;;;;;;;;;;;;;;;13.35;59.92;99846.16;4376679;32;19990;-91
2021/09/04 04:43:46;;;;;;;;;;;;;;;13.38;59.92;99848.63;4376469;32;30726;-92
2021/09/04 04:46:11;;;;;;;;;;;;;;;13.27;59.92;99847.41;4376611;32;29069;-91
2021/09/04 04:48:38;;;;;;;;;;;;;;;13.29;59.91;99849.03;4376728;32;31200;-91
2021/09/04 04:51:03;;;;;;;;;;;;;;;13.43;59.92;99856.28;4376996;32;19975;-90
2021/09/04 04:53:28;;;;;;;;;;;;;;;13.51;59.93;99851.59;4376336;32;20532;-91
2021/09/04 04:55:53;;;;;;;;;;;;;;;13.72;59.93;99849.78;4376099;32;20014;-91
2021/09/04 04:58:18;;;;;;;;;;;;;;;13.79;59.94;99852.09;4376324;32;20793;-92
2021/09/04 05:00:45;;;;;;;;;;;;;;;13.89;59.95;99849.06;4376718;32;20014;-91
2021/09/04 05:03:10;;;;;;;;;;;;;;;13.91;59.95;99852.47;4376340;32;20150;-90
2021/09/04 05:05:36;;;;;;;;;;;;;;;14.20;59.96;99844.19;4375868;32;26775;-91
2021/09/04 05:08:02;;;;;;;;;;;;;;;14.34;59.97;99851.41;4376239;32;20045;-90
2021/09/04 05:10:27;;;;;;;;;;;;;;;14.40;59.98;99841.47;4376407;32;20057;-89
2021/09/04 05:12:52;;;;;;;;;;;;;;;14.53;59.98;99851.44;4374639;32;20021;-88
2021/09/04 05:15:17;;;;;;;;;;;;;;;14.45;59.97;99845.72;4375066;32;19971;-88
2021/09/04 05:17:43;;;;;;;;;;;;;;;14.46;59.97;99850.03;4375045;32;20006;-89
2021/09/04 05:20:08;;;;;;;;;;;;;;;14.67;59.99;99851.66;4375024;32;20059;-89
2021/09/04 05:22:33;;;;;;;;;;;;;;;14.81;60.00;99845.75;4375255;32;19983;-91
2021/09/04 05:24:59;;;;;;;;;;;;;;;15.18;60.02;99847.44;4376647;32;20014;-94
2021/09/04 05:27:24;;;;;;;;;;;;;;;15.18;60.02;99848.28;4375294;32;20649;-90
2021/09/04 05:32:33;;;;;;;;;;;;;;;15.36;60.02;99857.00;4375994;32;19997;-91
2021/09/04 05:35:01;;;;;;;;;;;;;;;15.47;60.03;99849.47;4375600;32;20268;-92
2021/09/04 05:37:27;;;;;;;;;;;;;;;15.68;60.04;99860.66;4375891;32;19995;-91
2021/09/04 05:39:52;;;;;;;;;;;;;;;15.85;60.04;99863.28;4375518;32;20021;-90
2021/09/04 05:42:17;;;;;;;;;;;;;;;15.89;60.05;99858.72;4376158;32;20287;-91
2021/09/04 05:44:42;;;;;;;;;;;;;;;16.05;60.06;99856.97;4378025;32;24387;-91
2021/09/04 05:47:08;;;;;;;;;;;;;;;16.16;60.06;99864.28;4377390;32;20031;-91
2021/09/04 05:49:33;;;;;;;;;;;;;;;16.45;60.08;99854.84;4363398;32;25565;-90
2021/09/04 05:51:58;;;;;;;;;;;;;;;16.50;60.09;99863.31;4377330;32;20014;-90
2021/09/04 05:54:23;;;;;;;;;;;;;;;16.61;60.09;99862.75;4376924;32;23445;-90
2021/09/04 05:56:49;;;;;;;;;;;;;;;16.73;60.10;99868.19;4378898;32;20006;-92
2021/09/04 05:59:14;;;;;;;;;;;;;;;16.84;60.10;99865.00;4377333;32;20002;-91
2021/09/04 06:01:39;;;;;;;;;;;;;;;17.07;60.11;99858.44;4376638;32;30459;-91
2021/09/04 06:04:04;;;;;;;;;;;;;;;16.98;60.11;99864.19;4377261;32;25713;-92
2021/09/04 06:06:29;;;;;;;;;;;;;;;17.10;60.12;99869.63;4376898;32;28475;-92
2021/09/04 06:08:57;;;;;;;;;;;;;;;17.31;60.12;99867.53;4377211;32;20512;-92
2021/09/04 06:11:22;;;;;;;;;;;;;;;17.45;60.13;99859.69;4377738;32;19986;-91
2021/09/04 06:13:47;;;;;;;;;;;;;;;17.45;60.13;99864.09;4377295;32;25770;-91
2021/09/04 06:16:12;;;;;;;;;;;;;;;17.75;60.15;99861.50;4377525;32;25820;-93
2021/09/04 06:18:38;;;;;;;;;;;;;;;17.96;60.16;99859.31;4377718;32;20387;-91
2021/09/04 06:21:03;;;;;;;;;;;;;;;18.04;60.16;99852.69;4376986;32;29137;-91
2021/09/04 06:23:28;;;;;;;;;;;;;;;18.31;60.19;99844.84;4377378;32;26624;-93
2021/09/04 06:25:54;;;;;;;;;;;;;;;18.32;60.19;99848.34;4377634;32;20058;-93
2021/09/04 06:28:19;;;;;;;;;;;;;;;18.43;60.18;99843.22;4376483;32;23978;-92
2021/09/04 06:30:44;;;;;;;;;;;;;;;18.61;60.19;99844.69;4376817;32;20062;-93
2021/09/04 06:33:09;;;;;;;;;;;;;;;18.85;60.21;99849.37;4376718;32;24458;-92
2021/09/04 06:35:34;;;;;;;;;;;;;;;19.07;60.21;99848.84;4376283;32;29892;-93
2021/09/04 06:38:00;;;;;;;;;;;;;;;19.19;60.23;99845.41;4376914;32;20011;-93
2021/09/04 06:40:25;;;;;;;;;;;;;;;19.37;60.23;99851.25;4376480;32;31997;-93
2021/09/04 06:42:50;;;;;;;;;;;;;;;19.37;60.23;99853.88;4364857;32;20324;-92
2021/09/04 06:45:15;;;;;;;;;;;;;;;19.53;60.24;99852.78;4375955;32;31919;-93
2021/09/04 06:47:41;;;;;;;;;;;;;;;19.81;60.26;99853.56;4376144;32;24227;-93
2021/09/04 06:50:06;;;;;;;;;;;;;;;19.97;60.26;99856.84;4376776;32;20002;-93
2021/09/04 06:52:31;;;;;;;;;;;;;;;20.14;60.27;99847.75;4376369;32;20037;-93
2021/09/04 06:54:56;;;;;;;;;;;;;;;20.35;60.29;99853.34;4376750;32;20022;-93
2021/09/04 06:57:22;;;;;;;;;;;;;;;20.45;60.29;99849.94;4376642;32;20030;-93
2021/09/04 06:59:47;;;;;;;;;;;;;;;20.63;60.31;99853.09;4364004;32;19991;-93
2021/09/04 07:02:12;;;;;;;;;;;;;;;20.71;60.31;99853.38;4376238;32;21461;-92
2021/09/04 07:04:37;;;;;;;;;;;;;;;20.88;60.32;99860.09;4376515;32;20269;-93
2021/09/04 07:07:03;;;;;;;;;;;;;;;20.94;60.32;99862.28;4376547;32;20010;-93
2021/09/04 07:09:29;;;;;;;;;;;;;;;21.05;60.32;99858.84;4376965;32;19995;-92
2021/09/04 07:11:54;;;;;;;;;;;;;;;21.19;60.33;99852.53;4376158;32;28147;-93
2021/09/04 07:14:19;;;;;;;;;;;;;;;21.51;60.35;99852.78;4376456;32;20052;-93
2021/09/04 07:16:44;;;;;;;;;;;;;;;21.56;60.36;99848.03;4377013;32;20022;-93
2021/09/04 07:19:11;;;;;;;;;;;;;;;21.50;60.35;99857.25;4376338;32;20272;-93
2021/09/04 07:21:36;;;;;;;;;;;;;;;21.66;60.35;99852.50;4376778;32;19966;-93
2021/09/04 07:24:01;;;;;;;;;;;;;;;21.76;60.36;99853.47;4376303;32;25879;-93
2021/09/04 07:26:27;;;;;;;;;;;;;;;21.86;60.36;99858.91;4376122;32;22061;-93
2021/09/04 07:28:52;;;;;;;;;;;;;;;22.12;60.38;99858.72;4377762;32;20033;-93
2021/09/04 07:31:17;;;;;;;;;;;;;;;22.24;60.38;99863.06;4376279;32;20052;-93
2021/09/04 07:33:43;;;;;;;;;;;;;;;22.49;60.40;99857.53;4376299;32;20018;-92
2021/09/04 07:36:09;;;;;;;;;;;;;;;22.64;60.41;99853.63;4376260;32;20029;-92
2021/09/04 07:38:34;;;;;;;;;;;;;;;22.76;60.41;99857.13;4376524;32;19963;-93
2021/09/04 07:41:00;;;;;;;;;;;;;;;22.92;60.42;99848.78;4376325;32;19979;-93
2021/09/04 07:43:25;;;;;;;;;;;;;;;23.05;60.43;99860.09;4376221;32;20011;-93
2021/09/04 07:45:50;;;;;;;;;;;;;;;23.15;60.44;99862.81;4375992;32;20054;-93
2021/09/04 07:48:15;;;;;;;;;;;;;;;23.27;60.44;99857.34;4376493;32;25103;-92
2021/09/04 07:50:41;;;;;;;;;;;;;;;23.23;60.44;99868.34;4376962;32;20042;-94
2021/09/04 07:53:06;;;;;;;;;;;;;;;23.39;60.44;99865.25;4376947;32;20006;-92
2021/09/04 07:55:31;;;;;;;;;;;;;;;23.53;60.46;99870.28;4375857;32;26887;-93
2021/09/04 07:57:56;;;;;;;;;;;;;;;23.63;60.46;99867.69;4376285;32;20006;-93
2021/09/04 08:00:22;;;;;;;;;;;;;;;23.60;60.46;99868.81;4376597;32;19974;-94
2021/09/04 08:02:47;;;;;;;;;;;;;;;23.70;60.46;99863.56;4376024;32;20298;-93
2021/09/04 08:05:12;;;;;;;;;;;;;;;23.73;60.46;99860.66;4375151;32;20312;-93
2021/09/04 08:07:38;;;;;;;;;;;;;;;24.09;60.48;99860.16;4375649;32;24722;-93
2021/09/04 08:10:04;;;;;;;;;;;;;;;24.15;60.49;99856.13;4375662;32;21660;-93
2021/09/04 08:12:29;;;;;;;;;;;;;;;24.33;60.50;99851.88;4375984;32;20049;-93
2021/09/04 08:14:54;;;;;;;;;;;;;;;24.43;60.50;99852.78;4376181;32;20345;-93
2021/09/04 08:17:19;;;;;;;;;;;;;;;24.63;60.51;99850.19;4376114;32;19991;-93
2021/09/04 08:19:44;;;;;;;;;;;;;;;24.63;60.51;99845.69;4375744;32;19994;-93
2021/09/04 08:22:10;;;;;;;;;;;;;;;24.84;60.53;99850.91;4375301;32;27589;-93
2021/09/04 08:24:35;;;;;;;;;;;;;;;25.04;60.53;99847.31;4375763;32;20002;-93
2021/09/04 08:27:00;;;;;;;;;;;;;;;24.91;60.54;99856.53;4377092;32;20026;-93
2021/09/04 08:29:26;;;;;;;;;;;;;;;25.18;60.54;99855.91;4375907;32;20021;-93
2021/09/04 08:31:51;;;;;;;;;;;;;;;25.16;60.55;99857.84;4375646;32;20018;-92
2021/09/04 08:34:16;;;;;;;;;;;;;;;25.22;60.54;99850.13;4376005;32;20006;-93
2021/09/04 08:36:41;;;;;;;;;;;;;;;25.33;60.55;99844.69;4375421;32;25837;-93
2021/09/04 08:39:07;;;;;;;;;;;;;;;25.49;60.56;99841.44;4375875;32;19985;-93
2021/09/04 08:41:32;;;;;;;;;;;;;;;25.66;60.57;99834.53;4375929;32;20006;-92
2021/09/04 08:43:58;;;;;;;;;;;;;;;25.88;60.58;99830.72;4375183;32;26551;-93
2021/09/04 08:46:23;;;;;;;;;;;;;;;26.09;60.58;99841.19;4375948;32;19998;-92
2021/09/04 08:48:49;;;;;;;;;;;;;;;25.90;60.58;99826.94;4375812;32;21257;-93
2021/09/04 08:51:14;;;;;;;;;;;;;;;26.06;60.59;99834.34;4376299;32;20018;-93
2021/09/04 08:53:39;;;;;;;;;;;;;;;25.93;60.59;99829.31;4375805;32;20006;-93
2021/09/04 08:56:07;;;;;;;;;;;;;;;26.16;60.59;99834.28;4375462;32;20010;-93
2021/09/04 08:58:32;;;;;;;;;;;;;;;26.33;60.61;99828.19;4375697;32;19974;-93
2021/09/04 09:00:57;;;;;;;;;;;;;;;26.64;60.63;99819.88;4375485;32;20414;-93
2021/09/04 09:03:28;;;;;;;;;;;;;;;26.70;60.62;99824.59;4375448;32;19979;-92
2021/09/04 09:05:54;;;;;;;;;;;;;;;26.87;60.64;99811.28;4375460;32;19998;-93
2021/09/04 09:08:23;;;;;;;;;;;;;;;26.97;60.64;99807.69;4375672;32;19993;-93
2021/09/04 09:10:49;;;;;;;;;;;;;;;27.22;60.65;99793.63;4375250;32;20009;-93
2021/09/04 09:13:17;;;;;;;;;;;;;;;27.35;60.66;99794.03;4375412;32;20003;-93
2021/09/04 09:15:43;;;;;;;;;;;;;;;27.54;60.67;99801.03;4375871;32;19991;-93
2021/09/04 09:18:11;;;;;;;;;;;;;;;27.76;60.68;99799.72;4377091;32;20016;-94
2021/09/04 09:20:40;;;;;;;;;;;;;;;28.02;60.69;99791.66;4377570;32;20005;-94
2021/09/04 09:23:13;;;;;;;;;;;;;;;28.28;60.70;99795.16;4377345;32;20013;-94
2021/09/04 09:25:39;;;;;;;;;;;;;;;28.51;60.71;99795.37;4377291;32;20777;-93
2021/09/04 09:28:11;;;;;;;;;;;;;;;28.67;60.72;99800.81;4377140;32;20332;-93
2021/09/04 09:30:40;;;;;;;;;;;;;;;28.87;60.74;99801.38;4377478;32;19998;-93
2021/09/04 09:33:06;;;;;;;;;;;;;;;28.96;60.74;99805.72;4377205;32;20065;-94
2021/09/04 09:35:31;;;;;;;;;;;;;;;29.11;60.75;99800.56;4377261;32;19999;-93
2021/09/04 09:37:56;;;;;;;;;;;;;;;29.37;60.76;99799.56;4377588;32;19997;-93
2021/09/04 09:40:22;;;;;;;;;;;;;;;29.58;60.78;99792.69;4377512;32;20042;-94
2021/09/04 09:42:47;;;;;;;;;;;;;;;29.75;60.78;99787.28;4378452;32;20058;-93
2021/09/04 09:45:13;;;;;;;;;;;;;;;29.92;60.78;99794.28;4364892;32;19994;-93
2021/09/04 09:47:48;;;;;;;;;;;;;;;30.02;60.79;99788.69;4376429;32;25023;-93
2021/09/04 09:50:13;;;;;;;;;;;;;;;30.18;60.80;99786.84;4376913;32;19994;-93
2021/09/04 09:52:38;;;;;;;;;;;;;;;30.05;60.80;99791.94;4376943;32;20076;-93
2021/09/04 09:55:04;;;;;;;;;;;;;;;30.09;60.80;99795.94;4376440;32;19998;-93
2021/09/04 09:57:31;;;;;;;;;;;;;;;30.09;60.80;99795.94;4376650;32;20019;-93
2021/09/04 09:59:56;;;;;;;;;;;;;;;30.04;60.79;99795.59;4376832;32;19991;-93
2021/09/04 10:02:22;;;;;;;;;;;;;;;30.25;60.80;99795.84;4376391;32;23347;-94
2021/09/04 10:04:47;;;;;;;;;;;;;;;30.29;60.81;99798.22;4376105;32;27426;-93
2021/09/04 10:07:12;;;;;;;;;;;;;;;30.35;60.81;99803.72;4364251;32;20277;-93
2021/09/04 10:09:39;;;;;;;;;;;;;;;30.43;60.81;99800.97;4363839;32;21718;-93
2021/09/04 10:12:05;;;;;;;;;;;;;;;30.20;60.81;99808.97;4376719;32;19998;-92
2021/09/04 10:14:30;;;;;;;;;;;;;;;29.79;60.78;99804.69;4376673;32;20022;-91
2021/09/04 10:16:56;;;;;;;;;;;;;;;29.57;60.78;99807.09;4376515;32;20337;-92
2021/09/04 10:19:22;;;;;;;;;;;;;;;29.27;60.76;99816.63;4376695;32;20045;-92
2021/09/04 10:21:47;;;;;;;;;;;;;;;29.07;60.75;99825.16;4376581;32;19999;-92
2021/09/04 10:24:12;;;;;;;;;;;;;;;29.05;60.75;99817.28;4375963;32;30564;-92
2021/09/04 10:26:41;;;;;;;;;;;;;;;29.13;60.76;99817.31;4375525;32;31516;-93
2021/09/04 10:29:09;;;;;;;;;;;;;;;29.21;60.76;99808.44;4376105;32;20050;-92
2021/09/04 10:31:44;;;;;;;;;;;;;;;29.26;60.76;99811.44;4376469;32;19991;-93
2021/09/04 10:34:15;;;;;;;;;;;;;;;29.55;60.77;99802.91;4376557;32;20018;-92
2021/09/04 10:37:00;;;;;;;;;;;;;;;29.75;60.79;99795.31;4376515;32;20349;-92
2021/09/04 10:39:44;;;;;;;;;;;;;;;29.44;60.77;99795.19;4376449;32;19999;-92
2021/09/04 10:42:10;;;;;;;;;;;;;;;29.57;60.78;99799.03;4376439;32;20725;-90
2021/09/04 10:44:35;;;;;;;;;;;;;;;29.79;60.78;99794.81;4376247;32;20027;-90
2021/09/04 10:47:01;;;;;;;;;;;;;;;29.80;60.79;99801.00;4376360;32;20340;-91
2021/09/04 10:49:58;;;;;;;;;;;;;;;30.06;60.80;99801.66;4376287;32;20367;-91
2021/09/04 10:52:44;;;;;;;;;;;;;;;30.33;60.81;99799.53;4376529;32;20553;-91
2021/09/04 10:55:16;;;;;;;;;;;;;;;30.82;60.83;99800.97;4377305;32;20010;-91
2021/09/04 10:57:45;;;;;;;;;;;;;;;31.08;60.86;99797.91;4376670;32;19982;-91
2021/09/04 11:00:20;;;;;;;;;;;;;;;31.41;60.87;99798.50;4376903;32;20054;-91
2021/09/04 11:02:48;;;;;;;;;;;;;;;31.58;60.88;99793.81;4377182;32;19967;-92
2021/09/04 11:05:26;;;;;;;;;;;;;;;31.95;60.90;99790.25;4377090;32;20013;-92
2021/09/04 11:08:00;;;;;;;;;;;;;;;32.16;60.91;99781.41;4378264;32;19987;-91
2021/09/04 11:10:26;;;;;;;;;;;;;;;31.98;60.89;99787.19;4377268;32;20046;-92
2021/09/04 11:13:10;;;;;;;;;;;;;;;31.45;60.87;99791.75;4378230;32;19997;-92
2021/09/04 11:15:35;;;;;;;;;;;;;;;31.83;60.89;99780.97;4378386;32;19971;-92
2021/09/04 11:18:00;;;;;;;;;;;;;;;31.92;60.89;99777.16;4376426;32;34397;-91
2021/09/04 11:20:25;;;;;;;;;;;;;;;32.31;60.91;99776.03;4376915;32;20294;-91
2021/09/04 11:22:51;;;;;;;;;;;;;;;31.72;60.89;99782.28;4377023;32;20017;-91
2021/09/04 11:25:16;;;;;;;;;;;;;;;31.46;60.86;99798.78;4376734;32;20051;-90
2021/09/04 11:27:44;;;;;;;;;;;;;;;31.34;60.87;99789.50;4376143;32;30761;-91
2021/09/04 11:30:10;;;;;;;;;;;;;;;30.81;60.84;99791.22;4377067;32;20359;-92
2021/09/04 11:32:35;;;;;;;;;;;;;;;30.41;60.82;99788.75;4366759;32;20014;-93
2021/09/04 11:35:01;;;;;;;;;;;;;;;30.47;60.82;99788.03;4387574;32;19974;-91
2021/09/04 11:37:28;;;;;;;;;;;;;;;30.50;60.82;99782.31;4356439;32;834357;-93
2021/09/04 11:39:54;;;;;;;;;;;;;;;30.72;60.84;99786.91;4377048;32;20045;-92
2021/09/04 11:42:20;;;;;;;;;;;;;;;30.45;60.83;99787.37;4376687;32;20724;-92
2021/09/04 11:44:49;;;;;;;;;;;;;;;30.50;60.82;99780.47;4376634;32;20293;-92
2021/09/04 11:47:14;;;;;;;;;;;;;;;30.67;60.85;99772.34;4376678;32;20001;-92
2021/09/04 11:49:43;;;;;;;;;;;;;;;30.94;60.85;99769.12;4376304;32;21323;-92
2021/09/04 11:52:14;;;;;;;;;;;;;;;31.23;60.86;99772.94;4376794;32;20627;-93
2021/09/04 11:54:40;;;;;;;;;;;;;;;31.46;60.88;99755.75;4376870;32;19978;-91
2021/09/04 11:57:21;;;;;;;;;;;;;;;31.55;60.87;99761.06;4363370;32;30359;-91
2021/09/04 11:59:59;;;;;;;;;;;;;;;31.71;60.89;99760.91;4376201;32;20010;-92
2021/09/04 12:02:24;;;;;;;;;;;;;;;31.53;60.87;99752.34;4376812;32;19950;-92
2021/09/04 12:04:49;;;;;;;;;;;;;;;31.69;60.89;99747.59;4376292;32;20016;-93
2021/09/04 12:07:15;;;;;;;;;;;;;;;31.84;60.89;99746.81;4375706;32;25583;-91
2021/09/04 12:09:40;;;;;;;;;;;;;;;32.04;60.91;99751.44;4375694;32;24060;-91
2021/09/04 12:12:05;;;;;;;;;;;;;;;31.93;60.90;99754.59;4375915;32;29226;-92
2021/09/04 12:14:31;;;;;;;;;;;;;;;31.72;60.89;99752.66;4376374;32;20375;-92
2021/09/04 12:16:56;;;;;;;;;;;;;;;31.17;60.87;99749.47;4376638;32;20012;-91
2021/09/04 12:19:22;;;;;;;;;;;;;;;30.58;60.83;99746.53;4376029;32;19987;-92
2021/09/04 12:21:51;;;;;;;;;;;;;;;30.13;60.81;99754.31;4376365;32;20044;-92
2021/09/04 12:24:16;;;;;;;;;;;;;;;29.88;60.80;99758.91;4376308;32;20764;-92
2021/09/04 12:26:49;;;;;;;;;;;;;;;29.89;60.80;99751.69;4376105;32;20013;-91
2021/09/04 12:29:14;;;;;;;;;;;;;;;29.99;60.80;99749.63;4376241;32;20059;-91
2021/09/04 12:31:43;;;;;;;;;;;;;;;29.89;60.80;99749.00;4375458;32;26853;-92
2021/09/04 12:34:08;;;;;;;;;;;;;;;29.76;60.80;99752.22;4376280;32;20002;-92
2021/09/04 12:36:37;;;;;;;;;;;;;;;29.80;60.80;99748.19;4376010;32;20304;-92
2021/09/04 12:39:09;;;;;;;;;;;;;;;30.05;60.81;99751.66;4376175;32;20006;-91
2021/09/04 12:41:34;;;;;;;;;;;;;;;30.05;60.81;99749.00;4375920;32;20053;-92
2021/09/04 12:44:00;;;;;;;;;;;;;;;29.98;60.81;99744.44;4375900;32;19991;-91
2021/09/04 12:46:32;;;;;;;;;;;;;;;29.74;60.79;99740.00;4375757;32;19975;-91
2021/09/04 12:48:58;;;;;;;;;;;;;;;29.67;60.79;99744.38;4377422;32;20039;-91
2021/09/04 12:51:30;;;;;;;;;;;;;;;29.60;60.78;99745.06;4378586;32;20395;-90
2021/09/04 12:53:59;;;;;;;;;;;;;;;29.52;60.78;99739.72;4380627;32;19998;-91
2021/09/04 12:56:51;;;;;;;;;;;;;;;29.32;60.78;99746.41;4380450;32;20006;-90
2021/09/04 12:59:16;;;;;;;;;;;;;;;29.03;60.76;99739.72;4381816;32;20025;-90
2021/09/04 13:01:41;;;;;;;;;;;;;;;28.80;60.75;99744.03;4380734;32;20822;-90
2021/09/04 13:04:10;;;;;;;;;;;;;;;28.69;60.75;99747.06;4380840;32;20014;-91
2021/09/04 13:06:35;;;;;;;;;;;;;;;28.66;60.74;99747.41;4380648;32;19997;-91
2021/09/04 13:09:01;;;;;;;;;;;;;;;28.72;60.74;99739.53;4380802;32;20320;-90
2021/09/04 13:11:26;;;;;;;;;;;;;;;28.87;60.76;99734.37;4380503;32;19994;-91